Cambridge, Vermont
Current Conditions -  °F | °C
As of 6:54 AM on Sunday 21 Dec 2014 (Local Time) from KMVL Reporting Station
Overcast Overcast  
Wind Chill: 10°   Ceiling: 3000
Heat Index: 10°   Visibility: 8mi
Dew Point:   Wind: 0mph
Humidity: 84%   Direction: NA
Pressure: 30.33"   Gusts: NA
Location:  44.64°N, 72.88°W
Report Text: KMVL 211154Z AUTO 00000KT 8SM FEW004 OVC030 M12/M14 A3033 RMK AO2 SLP289 T11221144 11122 21161 53004 TSNO
Loading
Personal Weather Stations






























Interactive Weather Map New forecast layout! Learn more

10-Day Weather Forecast

Advertisements
Track Severe Weather on mobile